sensor_id;sensor_type;location;lat;lon;timestamp;pressure;altitude;pressure_sealevel;temperature;humidity
32237;BME280;18726;44.732;10.550;2023-03-24T00:00:59;101082.00;;;12.64;100.00
32237;BME280;18726;44.732;10.550;2023-03-24T00:04:03;101074.59;;;12.80;100.00
32237;BME280;18726;44.732;10.550;2023-03-24T00:07:07;101074.50;;;12.77;100.00
32237;BME280;18726;44.732;10.550;2023-03-24T00:10:12;101074.50;;;12.61;100.00
32237;BME280;18726;44.732;10.550;2023-03-24T00:13:17;101074.91;;;12.32;100.00
32237;BME280;18726;44.732;10.550;2023-03-24T00:16:20;101072.91;;;12.16;100.00
32237;BME280;18726;44.732;10.550;2023-03-24T00:19:24;101059.47;;;11.80;100.00
32237;BME280;18726;44.732;10.550;2023-03-24T00:22:28;101069.88;;;11.66;100.00
32237;BME280;18726;44.732;10.550;2023-03-24T00:25:32;101075.09;;;11.59;100.00
32237;BME280;18726;44.732;10.550;2023-03-24T00:28:38;101056.78;;;11.96;100.00
32237;BME280;18726;44.732;10.550;2023-03-24T00:31:41;101051.88;;;12.29;100.00
32237;BME280;18726;44.732;10.550;2023-03-24T00:34:45;101054.25;;;12.46;100.00
32237;BME280;18726;44.732;10.550;2023-03-24T00:37:51;101053.34;;;12.70;100.00
32237;BME280;18726;44.732;10.550;2023-03-24T00:40:55;101068.75;;;12.35;100.00
32237;BME280;18726;44.732;10.550;2023-03-24T00:43:59;101055.88;;;11.39;100.00
32237;BME280;18726;44.732;10.550;2023-03-24T00:47:02;101064.28;;;11.34;100.00
32237;BME280;18726;44.732;10.550;2023-03-24T00:50:07;101064.91;;;11.56;100.00
32237;BME280;18726;44.732;10.550;2023-03-24T00:53:12;101055.94;;;11.79;100.00
32237;BME280;18726;44.732;10.550;2023-03-24T00:56:17;101056.19;;;12.02;100.00
32237;BME280;18726;44.732;10.550;2023-03-24T00:59:20;101071.31;;;12.15;100.00
32237;BME280;18726;44.732;10.550;2023-03-24T01:02:25;101067.44;;;12.44;100.00
32237;BME280;18726;44.732;10.550;2023-03-24T01:05:30;101070.91;;;12.57;100.00
32237;BME280;18726;44.732;10.550;2023-03-24T01:08:33;101066.53;;;12.68;100.00
32237;BME280;18726;44.732;10.550;2023-03-24T01:11:38;101062.97;;;12.52;100.00
32237;BME280;18726;44.732;10.550;2023-03-24T01:14:41;101069.69;;;12.27;100.00
32237;BME280;18726;44.732;10.550;2023-03-24T01:17:45;101067.47;;;12.16;100.00
32237;BME280;18726;44.732;10.550;2023-03-24T01:20:51;101055.53;;;11.93;100.00
32237;BME280;18726;44.732;10.550;2023-03-24T01:23:55;101060.75;;;11.46;100.00
32237;BME280;18726;44.732;10.550;2023-03-24T01:26:59;101054.09;;;11.19;100.00
32237;BME280;18726;44.732;10.550;2023-03-24T01:30:04;101052.59;;;11.34;100.00
32237;BME280;18726;44.732;10.550;2023-03-24T01:33:07;101052.06;;;11.68;100.00
32237;BME280;18726;44.732;10.550;2023-03-24T01:36:11;101041.41;;;11.75;100.00
32237;BME280;18726;44.732;10.550;2023-03-24T01:39:15;101044.44;;;11.86;100.00
32237;BME280;18726;44.732;10.550;2023-03-24T01:42:19;101037.38;;;11.97;100.00
32237;BME280;18726;44.732;10.550;2023-03-24T01:46:23;101044.09;;;11.88;100.00
32237;BME280;18726;44.732;10.550;2023-03-24T01:49:04;101036.03;;;11.91;100.00
32237;BME280;18726;44.732;10.550;2023-03-24T01:52:10;101031.72;;;11.90;100.00
32237;BME280;18726;44.732;10.550;2023-03-24T01:55:16;101033.72;;;12.05;100.00
32237;BME280;18726;44.732;10.550;2023-03-24T01:58:22;101039.75;;;12.27;100.00
32237;BME280;18726;44.732;10.550;2023-03-24T02:01:50;101044.09;;;12.15;100.00
32237;BME280;18726;44.732;10.550;2023-03-24T02:05:10;101042.00;;;12.09;100.00
32237;BME280;18726;44.732;10.550;2023-03-24T02:11:21;101047.50;;;11.44;100.00
32237;BME280;18726;44.732;10.550;2023-03-24T02:14:30;101046.69;;;11.44;100.00
32237;BME280;18726;44.732;10.550;2023-03-24T02:17:39;101043.53;;;11.42;100.00
32237;BME280;18726;44.732;10.550;2023-03-24T02:20:54;101040.50;;;11.19;100.00
32237;BME280;18726;44.732;10.550;2023-03-24T02:53:31;101029.84;;;10.77;100.00
32237;BME280;18726;44.732;10.550;2023-03-24T03:00:43;101023.47;;;10.49;100.00
32237;BME280;18726;44.732;10.550;2023-03-24T03:03:50;101021.22;;;10.51;100.00
32237;BME280;18726;44.732;10.550;2023-03-24T03:06:56;101016.13;;;10.37;100.00
32237;BME280;18726;44.732;10.550;2023-03-24T03:10:11;101012.28;;;10.18;100.00
32237;BME280;18726;44.732;10.550;2023-03-24T03:13:35;101017.19;;;10.24;100.00
32237;BME280;18726;44.732;10.550;2023-03-24T03:19:46;101011.66;;;10.21;100.00
32237;BME280;18726;44.732;10.550;2023-03-24T03:22:53;101018.38;;;10.14;100.00
32237;BME280;18726;44.732;10.550;2023-03-24T03:26:00;101016.13;;;10.16;100.00
32237;BME280;18726;44.732;10.550;2023-03-24T03:29:10;101014.06;;;10.34;100.00
32237;BME280;18726;44.732;10.550;2023-03-24T03:32:26;101017.13;;;10.45;100.00
32237;BME280;18726;44.732;10.550;2023-03-24T03:35:35;101019.19;;;10.60;100.00
32237;BME280;18726;44.732;10.550;2023-03-24T03:38:48;101001.09;;;10.76;100.00
32237;BME280;18726;44.732;10.550;2023-03-24T03:41:57;101003.16;;;10.92;100.00
32237;BME280;18726;44.732;10.550;2023-03-24T03:45:02;101004.25;;;11.03;100.00
32237;BME280;18726;44.732;10.550;2023-03-24T03:48:05;100997.44;;;11.09;100.00
32237;BME280;18726;44.732;10.550;2023-03-24T03:51:09;101004.59;;;11.13;100.00
32237;BME280;18726;44.732;10.550;2023-03-24T03:54:13;101001.06;;;11.01;100.00
32237;BME280;18726;44.732;10.550;2023-03-24T03:57:21;100997.91;;;10.74;100.00
32237;BME280;18726;44.732;10.550;2023-03-24T04:01:01;101007.66;;;10.63;100.00
32237;BME280;18726;44.732;10.550;2023-03-24T04:04:21;100997.56;;;10.39;100.00
32237;BME280;18726;44.732;10.550;2023-03-24T04:11:39;100991.91;;;10.11;100.00
32237;BME280;18726;44.732;10.550;2023-03-24T04:15:15;100985.13;;;10.51;100.00
32237;BME280;18726;44.732;10.550;2023-03-24T04:28:13;100995.06;;;10.13;100.00
32237;BME280;18726;44.732;10.550;2023-03-24T04:31:25;100990.09;;;10.03;100.00
32237;BME280;18726;44.732;10.550;2023-03-24T04:37:41;100996.13;;;9.88;100.00
32237;BME280;18726;44.732;10.550;2023-03-24T04:40:50;100985.59;;;9.87;100.00
32237;BME280;18726;44.732;10.550;2023-03-24T04:43:57;100991.84;;;9.87;100.00
32237;BME280;18726;44.732;10.550;2023-03-24T04:47:02;100984.03;;;9.86;100.00
32237;BME280;18726;44.732;10.550;2023-03-24T04:50:07;100981.59;;;10.38;100.00
32237;BME280;18726;44.732;10.550;2023-03-24T04:53:13;100969.50;;;10.84;100.00
32237;BME280;18726;44.732;10.550;2023-03-24T04:59:40;100991.56;;;10.70;100.00
32237;BME280;18726;44.732;10.550;2023-03-24T05:02:46;100993.63;;;10.86;100.00
32237;BME280;18726;44.732;10.550;2023-03-24T05:05:56;100997.00;;;11.19;100.00
32237;BME280;18726;44.732;10.550;2023-03-24T05:09:01;101003.38;;;11.51;100.00
32237;BME280;18726;44.732;10.550;2023-03-24T05:12:06;101002.75;;;11.82;100.00
32237;BME280;18726;44.732;10.550;2023-03-24T05:15:24;101009.34;;;11.16;100.00
32237;BME280;18726;44.732;10.550;2023-03-24T05:18:33;101004.72;;;10.93;100.00
32237;BME280;18726;44.732;10.550;2023-03-24T05:21:36;101003.38;;;10.87;100.00
32237;BME280;18726;44.732;10.550;2023-03-24T05:24:42;101001.31;;;10.83;100.00
32237;BME280;18726;44.732;10.550;2023-03-24T05:27:45;100998.66;;;11.36;100.00
32237;BME280;18726;44.732;10.550;2023-03-24T05:30:55;100992.41;;;11.75;100.00
32237;BME280;18726;44.732;10.550;2023-03-24T05:34:17;101002.81;;;12.13;100.00
32237;BME280;18726;44.732;10.550;2023-03-24T05:37:38;101003.25;;;12.15;100.00
32237;BME280;18726;44.732;10.550;2023-03-24T05:40:42;101009.22;;;12.21;100.00
32237;BME280;18726;44.732;10.550;2023-03-24T05:43:50;101024.09;;;12.24;100.00
32237;BME280;18726;44.732;10.550;2023-03-24T05:46:54;101034.22;;;11.95;100.00
32237;BME280;18726;44.732;10.550;2023-03-24T05:49:58;101026.97;;;11.87;100.00
32237;BME280;18726;44.732;10.550;2023-03-24T05:53:01;101027.69;;;12.12;100.00
32237;BME280;18726;44.732;10.550;2023-03-24T05:56:25;101014.44;;;12.73;100.00
32237;BME280;18726;44.732;10.550;2023-03-24T05:59:56;101024.28;;;13.25;100.00
32237;BME280;18726;44.732;10.550;2023-03-24T06:03:29;101033.38;;;13.87;100.00
32237;BME280;18726;44.732;10.550;2023-03-24T06:06:40;101039.38;;;14.35;100.00
32237;BME280;18726;44.732;10.550;2023-03-24T06:09:48;101040.75;;;14.25;100.00
32237;BME280;18726;44.732;10.550;2023-03-24T06:12:54;101037.75;;;13.72;100.00
32237;BME280;18726;44.732;10.550;2023-03-24T06:15:58;101026.22;;;14.21;100.00
32237;BME280;18726;44.732;10.550;2023-03-24T06:19:16;101039.94;;;15.42;100.00
32237;BME280;18726;44.732;10.550;2023-03-24T06:22:32;101047.88;;;15.77;92.93
32237;BME280;18726;44.732;10.550;2023-03-24T06:25:35;101058.41;;;16.09;91.87
32237;BME280;18726;44.732;10.550;2023-03-24T06:28:59;101047.31;;;16.32;86.76
32237;BME280;18726;44.732;10.550;2023-03-24T06:32:07;101045.63;;;17.67;81.01
32237;BME280;18726;44.732;10.550;2023-03-24T06:35:17;101046.00;;;20.10;71.21
32237;BME280;18726;44.732;10.550;2023-03-24T06:38:30;101056.06;;;22.06;61.33
32237;BME280;18726;44.732;10.550;2023-03-24T06:41:33;101060.31;;;21.80;56.37
32237;BME280;18726;44.732;10.550;2023-03-24T06:44:38;101065.78;;;21.53;57.67
32237;BME280;18726;44.732;10.550;2023-03-24T06:47:42;101059.38;;;21.19;59.62
32237;BME280;18726;44.732;10.550;2023-03-24T06:50:45;101063.28;;;21.29;59.37
32237;BME280;18726;44.732;10.550;2023-03-24T06:53:49;101057.38;;;21.95;57.56
32237;BME280;18726;44.732;10.550;2023-03-24T06:56:53;101051.91;;;22.21;60.11
32237;BME280;18726;44.732;10.550;2023-03-24T06:59:58;101058.03;;;22.86;58.27
32237;BME280;18726;44.732;10.550;2023-03-24T07:03:06;101069.81;;;25.63;51.20
32237;BME280;18726;44.732;10.550;2023-03-24T07:06:10;101063.13;;;29.20;41.48
32237;BME280;18726;44.732;10.550;2023-03-24T07:09:14;101063.59;;;28.11;41.60
32237;BME280;18726;44.732;10.550;2023-03-24T07:12:17;101057.59;;;26.40;43.49
32237;BME280;18726;44.732;10.550;2023-03-24T07:15:20;101056.59;;;25.67;46.87
32237;BME280;18726;44.732;10.550;2023-03-24T07:18:23;101053.75;;;25.96;47.71
32237;BME280;18726;44.732;10.550;2023-03-24T07:21:34;101065.59;;;25.71;46.51
32237;BME280;18726;44.732;10.550;2023-03-24T07:24:38;101053.28;;;25.27;49.73
32237;BME280;18726;44.732;10.550;2023-03-24T07:28:02;101060.88;;;23.06;55.54
32237;BME280;18726;44.732;10.550;2023-03-24T07:31:05;101055.69;;;22.04;61.83
32237;BME280;18726;44.732;10.550;2023-03-24T07:34:14;101051.03;;;21.30;64.27
32237;BME280;18726;44.732;10.550;2023-03-24T07:37:18;101059.53;;;20.53;72.54
32237;BME280;18726;44.732;10.550;2023-03-24T07:40:21;101060.69;;;19.86;77.38
32237;BME280;18726;44.732;10.550;2023-03-24T07:43:25;101056.41;;;19.71;78.84
32237;BME280;18726;44.732;10.550;2023-03-24T07:46:32;101058.81;;;19.37;83.69
32237;BME280;18726;44.732;10.550;2023-03-24T07:49:35;101046.28;;;19.21;89.73
32237;BME280;18726;44.732;10.550;2023-03-24T07:52:47;101052.97;;;19.17;89.68
32237;BME280;18726;44.732;10.550;2023-03-24T07:55:53;101061.19;;;19.35;87.35
32237;BME280;18726;44.732;10.550;2023-03-24T07:59:00;101058.47;;;19.24;82.01
32237;BME280;18726;44.732;10.550;2023-03-24T08:02:22;101060.78;;;19.58;83.43
32237;BME280;18726;44.732;10.550;2023-03-24T08:05:35;101057.56;;;20.53;77.06
32237;BME280;18726;44.732;10.550;2023-03-24T08:08:57;101063.72;;;20.79;75.26
32237;BME280;18726;44.732;10.550;2023-03-24T08:12:01;101065.31;;;20.73;76.76
32237;BME280;18726;44.732;10.550;2023-03-24T08:15:05;101062.94;;;20.75;76.26
32237;BME280;18726;44.732;10.550;2023-03-24T08:18:09;101084.28;;;21.94;75.74
32237;BME280;18726;44.732;10.550;2023-03-24T08:21:13;101082.91;;;22.90;68.98
32237;BME280;18726;44.732;10.550;2023-03-24T08:24:16;101085.63;;;23.17;63.54
32237;BME280;18726;44.732;10.550;2023-03-24T08:27:22;101090.25;;;24.26;61.48
32237;BME280;18726;44.732;10.550;2023-03-24T08:30:25;101092.06;;;25.63;53.31
32237;BME280;18726;44.732;10.550;2023-03-24T08:33:30;101090.41;;;24.71;55.34
32237;BME280;18726;44.732;10.550;2023-03-24T08:36:34;101083.41;;;23.95;60.87
32237;BME280;18726;44.732;10.550;2023-03-24T08:39:38;101088.31;;;24.43;59.62
32237;BME280;18726;44.732;10.550;2023-03-24T08:42:41;101081.00;;;24.33;59.96
32237;BME280;18726;44.732;10.550;2023-03-24T08:45:44;101077.06;;;23.74;61.50
32237;BME280;18726;44.732;10.550;2023-03-24T08:48:48;101070.59;;;22.95;62.90
32237;BME280;18726;44.732;10.550;2023-03-24T08:51:51;101061.00;;;21.13;71.67
32237;BME280;18726;44.732;10.550;2023-03-24T08:54:54;101064.03;;;20.26;79.41
32237;BME280;18726;44.732;10.550;2023-03-24T08:57:58;101058.69;;;19.90;78.57
32237;BME280;18726;44.732;10.550;2023-03-24T09:01:02;101065.03;;;19.76;85.97
32237;BME280;18726;44.732;10.550;2023-03-24T09:04:05;101059.53;;;19.73;83.18
32237;BME280;18726;44.732;10.550;2023-03-24T09:07:08;101053.84;;;20.15;82.22
32237;BME280;18726;44.732;10.550;2023-03-24T09:10:12;101056.94;;;20.83;81.08
32237;BME280;18726;44.732;10.550;2023-03-24T09:13:16;101056.47;;;20.37;79.02
32237;BME280;18726;44.732;10.550;2023-03-24T09:16:20;101053.88;;;20.05;87.10
32237;BME280;18726;44.732;10.550;2023-03-24T09:19:25;101044.47;;;19.99;80.66
32237;BME280;18726;44.732;10.550;2023-03-24T09:22:28;101048.59;;;20.39;80.82
32237;BME280;18726;44.732;10.550;2023-03-24T09:25:31;101046.00;;;20.73;78.96
32237;BME280;18726;44.732;10.550;2023-03-24T09:28:34;101048.47;;;21.05;74.64
32237;BME280;18726;44.732;10.550;2023-03-24T09:31:38;101054.94;;;20.87;76.15
32237;BME280;18726;44.732;10.550;2023-03-24T09:34:41;101060.50;;;20.80;77.90
32237;BME280;18726;44.732;10.550;2023-03-24T09:37:44;101046.47;;;21.50;77.15
32237;BME280;18726;44.732;10.550;2023-03-24T09:40:53;101059.63;;;21.73;69.36
32237;BME280;18726;44.732;10.550;2023-03-24T09:43:59;101073.66;;;21.89;69.43
32237;BME280;18726;44.732;10.550;2023-03-24T09:47:11;101086.78;;;22.15;67.69
32237;BME280;18726;44.732;10.550;2023-03-24T09:50:23;101068.28;;;21.75;67.94
32237;BME280;18726;44.732;10.550;2023-03-24T09:56:38;101052.97;;;21.97;69.32
32237;BME280;18726;44.732;10.550;2023-03-24T09:59:42;101039.47;;;22.06;68.72
32237;BME280;18726;44.732;10.550;2023-03-24T10:02:46;101035.97;;;22.02;63.57
32237;BME280;18726;44.732;10.550;2023-03-24T10:12:36;101032.06;;;23.43;71.68
32237;BME280;18726;44.732;10.550;2023-03-24T10:15:45;101047.31;;;25.28;57.69
32237;BME280;18726;44.732;10.550;2023-03-24T10:19:16;101057.00;;;26.57;51.36
32237;BME280;18726;44.732;10.550;2023-03-24T10:22:29;101054.44;;;27.23;45.74
32237;BME280;18726;44.732;10.550;2023-03-24T10:29:03;101040.00;;;25.34;51.14
32237;BME280;18726;44.732;10.550;2023-03-24T10:32:18;101025.69;;;25.19;55.12
32237;BME280;18726;44.732;10.550;2023-03-24T10:35:26;101029.19;;;26.32;48.05
32237;BME280;18726;44.732;10.550;2023-03-24T10:38:30;101035.19;;;26.43;44.70
32237;BME280;18726;44.732;10.550;2023-03-24T10:41:33;101023.72;;;26.88;44.55
32237;BME280;18726;44.732;10.550;2023-03-24T10:44:37;101023.38;;;27.12;45.58
32237;BME280;18726;44.732;10.550;2023-03-24T10:47:42;101026.63;;;27.10;44.28
32237;BME280;18726;44.732;10.550;2023-03-24T10:50:46;101026.41;;;27.05;43.54
32237;BME280;18726;44.732;10.550;2023-03-24T10:53:51;101013.22;;;26.58;41.04
32237;BME280;18726;44.732;10.550;2023-03-24T10:57:16;101002.19;;;26.16;44.82
32237;BME280;18726;44.732;10.550;2023-03-24T11:00:26;100997.59;;;26.73;47.29
32237;BME280;18726;44.732;10.550;2023-03-24T11:03:33;100994.34;;;26.75;42.30
32237;BME280;18726;44.732;10.550;2023-03-24T11:06:37;100995.84;;;26.54;42.99
32237;BME280;18726;44.732;10.550;2023-03-24T11:09:44;100990.03;;;26.61;44.41
32237;BME280;18726;44.732;10.550;2023-03-24T11:16:09;100974.25;;;27.14;42.94
32237;BME280;18726;44.732;10.550;2023-03-24T11:19:21;100975.69;;;27.19;41.03
32237;BME280;18726;44.732;10.550;2023-03-24T11:22:25;100977.00;;;26.92;40.06
32237;BME280;18726;44.732;10.550;2023-03-24T11:25:30;100982.63;;;27.14;40.37
32237;BME280;18726;44.732;10.550;2023-03-24T11:28:35;100965.66;;;27.52;43.29
32237;BME280;18726;44.732;10.550;2023-03-24T11:31:40;100966.00;;;27.54;41.22
32237;BME280;18726;44.732;10.550;2023-03-24T11:34:45;100959.41;;;27.39;41.61
32237;BME280;18726;44.732;10.550;2023-03-24T11:37:49;100959.09;;;26.81;41.95
32237;BME280;18726;44.732;10.550;2023-03-24T11:40:59;100946.09;;;26.65;42.25
32237;BME280;18726;44.732;10.550;2023-03-24T11:50:29;100949.00;;;27.18;38.98
32237;BME280;18726;44.732;10.550;2023-03-24T11:53:43;100937.06;;;27.17;44.54
32237;BME280;18726;44.732;10.550;2023-03-24T11:56:52;100951.06;;;27.48;40.50
32237;BME280;18726;44.732;10.550;2023-03-24T12:00:02;100947.72;;;27.32;39.67
32237;BME280;18726;44.732;10.550;2023-03-24T12:09:53;100933.53;;;25.46;40.14
32237;BME280;18726;44.732;10.550;2023-03-24T12:13:03;100923.97;;;24.77;42.31
32237;BME280;18726;44.732;10.550;2023-03-24T12:22:34;100911.22;;;25.21;44.71
32237;BME280;18726;44.732;10.550;2023-03-24T12:42:02;100869.16;;;24.32;42.61
32237;BME280;18726;44.732;10.550;2023-03-24T12:45:02;100851.91;;;24.41;42.81
32237;BME280;18726;44.732;10.550;2023-03-24T12:54:34;100850.69;;;23.77;46.55
32237;BME280;18726;44.732;10.550;2023-03-24T13:04:10;100838.69;;;25.15;43.82
32237;BME280;18726;44.732;10.550;2023-03-24T13:07:16;100824.00;;;25.02;44.16
32237;BME280;18726;44.732;10.550;2023-03-24T13:10:21;100837.16;;;24.85;41.06
32237;BME280;18726;44.732;10.550;2023-03-24T13:13:35;100833.91;;;24.74;40.94
32237;BME280;18726;44.732;10.550;2023-03-24T13:16:40;100827.59;;;24.86;43.18
32237;BME280;18726;44.732;10.550;2023-03-24T13:19:44;100821.69;;;24.84;42.83
32237;BME280;18726;44.732;10.550;2023-03-24T13:22:48;100817.50;;;24.80;42.52
32237;BME280;18726;44.732;10.550;2023-03-24T13:32:13;100801.00;;;25.02;44.14
32237;BME280;18726;44.732;10.550;2023-03-24T13:38:36;100782.00;;;24.71;41.12
32237;BME280;18726;44.732;10.550;2023-03-24T13:41:40;100794.00;;;24.68;43.37
32237;BME280;18726;44.732;10.550;2023-03-24T13:44:49;100782.47;;;24.41;40.76
32237;BME280;18726;44.732;10.550;2023-03-24T13:51:00;100774.50;;;24.27;42.65
32237;BME280;18726;44.732;10.550;2023-03-24T13:54:10;100768.56;;;24.12;42.54
32237;BME280;18726;44.732;10.550;2023-03-24T13:57:16;100774.88;;;24.12;44.47
32237;BME280;18726;44.732;10.550;2023-03-24T14:00:23;100782.88;;;24.10;44.12
32237;BME280;18726;44.732;10.550;2023-03-24T14:03:31;100771.84;;;24.07;43.40
32237;BME280;18726;44.732;10.550;2023-03-24T14:09:57;100773.53;;;23.72;43.88
32237;BME280;18726;44.732;10.550;2023-03-24T14:13:04;100761.50;;;23.78;43.99
32237;BME280;18726;44.732;10.550;2023-03-24T14:16:33;100749.44;;;23.52;42.71
32237;BME280;18726;44.732;10.550;2023-03-24T14:20:11;100746.88;;;23.62;43.05
32237;BME280;18726;44.732;10.550;2023-03-24T14:23:18;100739.06;;;23.56;41.88
32237;BME280;18726;44.732;10.550;2023-03-24T14:29:34;100745.19;;;23.32;44.78
32237;BME280;18726;44.732;10.550;2023-03-24T14:32:43;100745.97;;;23.32;44.21
32237;BME280;18726;44.732;10.550;2023-03-24T14:35:48;100739.78;;;23.24;45.10
32237;BME280;18726;44.732;10.550;2023-03-24T14:38:53;100738.38;;;23.16;44.81
32237;BME280;18726;44.732;10.550;2023-03-24T14:41:57;100736.38;;;23.01;43.24
32237;BME280;18726;44.732;10.550;2023-03-24T14:45:04;100730.56;;;22.95;44.68
32237;BME280;18726;44.732;10.550;2023-03-24T14:48:54;100731.19;;;23.03;46.22
32237;BME280;18726;44.732;10.550;2023-03-24T14:54:57;100722.34;;;22.92;44.78
32237;BME280;18726;44.732;10.550;2023-03-24T14:58:16;100727.38;;;22.97;43.79
32237;BME280;18726;44.732;10.550;2023-03-24T15:01:23;100715.44;;;23.16;45.71
32237;BME280;18726;44.732;10.550;2023-03-24T15:04:28;100709.56;;;23.30;44.82
32237;BME280;18726;44.732;10.550;2023-03-24T15:07:32;100712.00;;;23.28;43.55
32237;BME280;18726;44.732;10.550;2023-03-24T15:10:43;100710.59;;;23.20;44.63
32237;BME280;18726;44.732;10.550;2023-03-24T15:13:49;100715.44;;;23.00;43.62
32237;BME280;18726;44.732;10.550;2023-03-24T15:16:56;100722.72;;;23.10;43.16
32237;BME280;18726;44.732;10.550;2023-03-24T15:20:00;100722.53;;;23.17;42.78
32237;BME280;18726;44.732;10.550;2023-03-24T15:23:07;100733.13;;;23.22;44.70
32237;BME280;18726;44.732;10.550;2023-03-24T15:26:11;100732.06;;;23.00;43.22
32237;BME280;18726;44.732;10.550;2023-03-24T15:29:15;100726.63;;;22.76;43.24
32237;BME280;18726;44.732;10.550;2023-03-24T15:32:19;100729.41;;;22.37;46.50
32237;BME280;18726;44.732;10.550;2023-03-24T15:35:23;100718.16;;;22.24;44.64
32237;BME280;18726;44.732;10.550;2023-03-24T15:38:28;100725.38;;;22.21;44.71
32237;BME280;18726;44.732;10.550;2023-03-24T15:41:32;100724.66;;;21.94;44.35
32237;BME280;18726;44.732;10.550;2023-03-24T15:44:37;100717.31;;;21.84;46.46
32237;BME280;18726;44.732;10.550;2023-03-24T15:47:41;100707.22;;;21.74;47.32
32237;BME280;18726;44.732;10.550;2023-03-24T15:51:01;100729.59;;;21.60;48.39
32237;BME280;18726;44.732;10.550;2023-03-24T15:54:14;100711.56;;;21.28;47.74
32237;BME280;18726;44.732;10.550;2023-03-24T15:57:24;100711.19;;;21.26;49.72
32237;BME280;18726;44.732;10.550;2023-03-24T16:00:35;100708.66;;;21.08;45.99
32237;BME280;18726;44.732;10.550;2023-03-24T16:03:40;100716.31;;;20.97;46.54
32237;BME280;18726;44.732;10.550;2023-03-24T16:06:46;100711.22;;;20.96;47.81
32237;BME280;18726;44.732;10.550;2023-03-24T16:09:54;100714.25;;;21.05;47.05
32237;BME280;18726;44.732;10.550;2023-03-24T16:13:07;100708.66;;;21.08;47.81
32237;BME280;18726;44.732;10.550;2023-03-24T16:19:17;100727.31;;;21.01;48.78
32237;BME280;18726;44.732;10.550;2023-03-24T16:22:21;100725.31;;;20.74;49.95
32237;BME280;18726;44.732;10.550;2023-03-24T16:25:25;100731.00;;;20.60;49.34
32237;BME280;18726;44.732;10.550;2023-03-24T16:28:28;100716.09;;;20.54;50.90
32237;BME280;18726;44.732;10.550;2023-03-24T16:31:31;100717.47;;;20.39;50.34
32237;BME280;18726;44.732;10.550;2023-03-24T16:34:38;100728.41;;;20.12;50.61
32237;BME280;18726;44.732;10.550;2023-03-24T16:37:41;100725.28;;;20.06;50.67
32237;BME280;18726;44.732;10.550;2023-03-24T16:40:46;100729.03;;;19.89;53.01
32237;BME280;18726;44.732;10.550;2023-03-24T16:43:50;100730.34;;;19.70;51.87
32237;BME280;18726;44.732;10.550;2023-03-24T16:46:55;100724.16;;;19.59;51.62
32237;BME280;18726;44.732;10.550;2023-03-24T16:49:58;100732.09;;;19.53;52.67
32237;BME280;18726;44.732;10.550;2023-03-24T16:53:02;100728.59;;;19.42;55.76
32237;BME280;18726;44.732;10.550;2023-03-24T16:56:09;100727.41;;;19.43;54.79
32237;BME280;18726;44.732;10.550;2023-03-24T16:59:14;100716.44;;;19.36;55.51
32237;BME280;18726;44.732;10.550;2023-03-24T17:02:17;100726.75;;;19.25;58.01
32237;BME280;18726;44.732;10.550;2023-03-24T17:05:28;100740.19;;;19.16;54.87
32237;BME280;18726;44.732;10.550;2023-03-24T17:08:32;100731.63;;;19.03;55.37
32237;BME280;18726;44.732;10.550;2023-03-24T17:11:43;100728.97;;;18.85;55.98
32237;BME280;18726;44.732;10.550;2023-03-24T17:14:46;100747.50;;;18.74;56.48
32237;BME280;18726;44.732;10.550;2023-03-24T17:17:50;100734.19;;;18.66;55.12
32237;BME280;18726;44.732;10.550;2023-03-24T17:20:54;100744.38;;;18.58;56.80
32237;BME280;18726;44.732;10.550;2023-03-24T17:23:57;100742.84;;;18.50;56.75
32237;BME280;18726;44.732;10.550;2023-03-24T17:27:00;100737.41;;;18.36;57.27
32237;BME280;18726;44.732;10.550;2023-03-24T17:30:06;100744.50;;;18.26;58.03
32237;BME280;18726;44.732;10.550;2023-03-24T17:33:13;100744.53;;;18.12;59.98
32237;BME280;18726;44.732;10.550;2023-03-24T17:36:17;100751.63;;;18.09;59.65
32237;BME280;18726;44.732;10.550;2023-03-24T17:39:20;100757.13;;;17.99;59.98
32237;BME280;18726;44.732;10.550;2023-03-24T17:42:24;100767.75;;;17.86;59.66
32237;BME280;18726;44.732;10.550;2023-03-24T17:45:28;100764.22;;;17.75;59.79
32237;BME280;18726;44.732;10.550;2023-03-24T17:48:31;100758.31;;;17.66;57.96
32237;BME280;18726;44.732;10.550;2023-03-24T17:51:35;100760.66;;;17.57;58.61
32237;BME280;18726;44.732;10.550;2023-03-24T17:54:38;100746.91;;;17.46;58.47
32237;BME280;18726;44.732;10.550;2023-03-24T17:57:42;100741.41;;;17.49;56.84
32237;BME280;18726;44.732;10.550;2023-03-24T18:00:47;100731.59;;;17.63;55.83
32237;BME280;18726;44.732;10.550;2023-03-24T18:03:50;100731.22;;;17.57;56.56
32237;BME280;18726;44.732;10.550;2023-03-24T18:06:53;100715.13;;;17.59;55.44
32237;BME280;18726;44.732;10.550;2023-03-24T18:09:57;100719.44;;;17.57;55.02
32237;BME280;18726;44.732;10.550;2023-03-24T18:13:02;100735.53;;;17.54;58.38
32237;BME280;18726;44.732;10.550;2023-03-24T18:16:06;100742.19;;;17.32;60.49
32237;BME280;18726;44.732;10.550;2023-03-24T18:19:09;100730.41;;;17.21;61.47
32237;BME280;18726;44.732;10.550;2023-03-24T18:22:13;100724.13;;;17.38;56.22
32237;BME280;18726;44.732;10.550;2023-03-24T18:25:16;100716.28;;;17.40;57.75
32237;BME280;18726;44.732;10.550;2023-03-24T18:28:19;100725.72;;;17.32;60.44
32237;BME280;18726;44.732;10.550;2023-03-24T18:31:23;100710.03;;;17.29;57.73
32237;BME280;18726;44.732;10.550;2023-03-24T18:34:28;100707.69;;;17.31;61.46